sensor_id;sensor_type;location;lat;lon;timestamp;P1;durP1;ratioP1;P2;durP2;ratioP2
67757;SDS011;54562;47.620;18.786;2023-09-19T00:01:39;14.80;;;6.70;;
67757;SDS011;54562;47.620;18.786;2023-09-19T00:04:48;16.80;;;6.90;;
67757;SDS011;54562;47.620;18.786;2023-09-19T00:07:56;18.80;;;7.60;;
67757;SDS011;54562;47.620;18.786;2023-09-19T00:11:03;14.60;;;8.30;;
67757;SDS011;54562;47.620;18.786;2023-09-19T00:14:14;13.00;;;7.50;;
67757;SDS011;54562;47.620;18.786;2023-09-19T00:17:21;11.60;;;7.80;;
67757;SDS011;54562;47.620;18.786;2023-09-19T00:20:28;13.50;;;7.80;;
67757;SDS011;54562;47.620;18.786;2023-09-19T00:23:36;14.70;;;8.20;;
67757;SDS011;54562;47.620;18.786;2023-09-19T00:26:44;17.20;;;8.40;;
67757;SDS011;54562;47.620;18.786;2023-09-19T00:29:52;17.50;;;8.80;;
67757;SDS011;54562;47.620;18.786;2023-09-19T00:32:59;11.60;;;8.40;;
67757;SDS011;54562;47.620;18.786;2023-09-19T00:36:10;16.10;;;8.10;;
67757;SDS011;54562;47.620;18.786;2023-09-19T00:39:17;17.70;;;8.20;;
67757;SDS011;54562;47.620;18.786;2023-09-19T00:42:25;12.70;;;8.50;;
67757;SDS011;54562;47.620;18.786;2023-09-19T00:45:32;17.30;;;8.70;;
67757;SDS011;54562;47.620;18.786;2023-09-19T00:48:40;19.40;;;8.20;;
67757;SDS011;54562;47.620;18.786;2023-09-19T00:51:47;13.60;;;8.90;;
67757;SDS011;54562;47.620;18.786;2023-09-19T00:54:55;19.20;;;9.00;;
67757;SDS011;54562;47.620;18.786;2023-09-19T00:58:05;14.20;;;8.30;;
67757;SDS011;54562;47.620;18.786;2023-09-19T01:01:11;16.50;;;8.70;;
67757;SDS011;54562;47.620;18.786;2023-09-19T01:04:19;16.00;;;8.40;;
67757;SDS011;54562;47.620;18.786;2023-09-19T01:07:26;17.10;;;8.70;;
67757;SDS011;54562;47.620;18.786;2023-09-19T01:10:34;17.20;;;9.20;;
67757;SDS011;54562;47.620;18.786;2023-09-19T01:13:46;13.70;;;8.40;;
67757;SDS011;54562;47.620;18.786;2023-09-19T01:16:58;15.90;;;8.90;;
67757;SDS011;54562;47.620;18.786;2023-09-19T01:20:15;15.40;;;8.50;;
67757;SDS011;54562;47.620;18.786;2023-09-19T01:23:28;14.60;;;8.80;;
67757;SDS011;54562;47.620;18.786;2023-09-19T01:26:50;16.70;;;8.40;;
67757;SDS011;54562;47.620;18.786;2023-09-19T01:30:10;16.60;;;8.70;;
67757;SDS011;54562;47.620;18.786;2023-09-19T01:33:18;17.00;;;8.20;;
67757;SDS011;54562;47.620;18.786;2023-09-19T01:36:24;16.10;;;8.10;;
67757;SDS011;54562;47.620;18.786;2023-09-19T01:39:32;14.70;;;8.60;;
67757;SDS011;54562;47.620;18.786;2023-09-19T01:42:40;12.90;;;7.90;;
67757;SDS011;54562;47.620;18.786;2023-09-19T01:45:51;14.50;;;8.70;;
67757;SDS011;54562;47.620;18.786;2023-09-19T01:49:03;15.60;;;7.80;;
67757;SDS011;54562;47.620;18.786;2023-09-19T01:52:15;14.90;;;8.30;;
67757;SDS011;54562;47.620;18.786;2023-09-19T01:55:26;14.20;;;8.20;;
67757;SDS011;54562;47.620;18.786;2023-09-19T01:58:34;15.30;;;8.40;;
67757;SDS011;54562;47.620;18.786;2023-09-19T02:01:45;13.80;;;8.40;;
67757;SDS011;54562;47.620;18.786;2023-09-19T02:04:51;13.90;;;7.90;;
67757;SDS011;54562;47.620;18.786;2023-09-19T02:07:58;14.90;;;7.80;;
67757;SDS011;54562;47.620;18.786;2023-09-19T02:11:04;14.60;;;8.50;;
67757;SDS011;54562;47.620;18.786;2023-09-19T02:14:11;12.90;;;7.80;;
67757;SDS011;54562;47.620;18.786;2023-09-19T02:17:19;16.60;;;8.20;;
67757;SDS011;54562;47.620;18.786;2023-09-19T02:20:29;16.90;;;8.50;;
67757;SDS011;54562;47.620;18.786;2023-09-19T02:23:38;15.00;;;8.30;;
67757;SDS011;54562;47.620;18.786;2023-09-19T02:26:45;15.80;;;8.60;;
67757;SDS011;54562;47.620;18.786;2023-09-19T02:29:53;15.80;;;8.70;;
67757;SDS011;54562;47.620;18.786;2023-09-19T02:32:59;15.30;;;8.60;;
67757;SDS011;54562;47.620;18.786;2023-09-19T02:36:06;14.10;;;8.90;;
67757;SDS011;54562;47.620;18.786;2023-09-19T02:39:13;14.30;;;8.50;;
67757;SDS011;54562;47.620;18.786;2023-09-19T02:42:20;16.30;;;8.90;;
67757;SDS011;54562;47.620;18.786;2023-09-19T02:45:27;14.00;;;8.50;;
67757;SDS011;54562;47.620;18.786;2023-09-19T02:48:34;14.10;;;9.20;;
67757;SDS011;54562;47.620;18.786;2023-09-19T02:51:41;15.20;;;8.80;;
67757;SDS011;54562;47.620;18.786;2023-09-19T02:54:48;13.80;;;8.50;;
67757;SDS011;54562;47.620;18.786;2023-09-19T02:57:55;19.00;;;8.90;;
67757;SDS011;54562;47.620;18.786;2023-09-19T03:01:09;14.50;;;8.70;;
67757;SDS011;54562;47.620;18.786;2023-09-19T03:04:16;15.40;;;8.80;;
67757;SDS011;54562;47.620;18.786;2023-09-19T03:07:23;14.20;;;7.70;;
67757;SDS011;54562;47.620;18.786;2023-09-19T03:10:30;13.90;;;7.40;;
67757;SDS011;54562;47.620;18.786;2023-09-19T03:13:37;14.50;;;7.10;;
67757;SDS011;54562;47.620;18.786;2023-09-19T03:16:45;15.40;;;6.70;;
67757;SDS011;54562;47.620;18.786;2023-09-19T03:19:53;13.80;;;6.10;;
67757;SDS011;54562;47.620;18.786;2023-09-19T03:23:00;12.00;;;5.70;;
67757;SDS011;54562;47.620;18.786;2023-09-19T03:26:09;12.20;;;6.00;;
67757;SDS011;54562;47.620;18.786;2023-09-19T03:29:15;11.80;;;5.80;;
67757;SDS011;54562;47.620;18.786;2023-09-19T03:32:22;11.80;;;5.80;;
67757;SDS011;54562;47.620;18.786;2023-09-19T03:35:28;10.60;;;5.30;;
67757;SDS011;54562;47.620;18.786;2023-09-19T03:38:35;12.50;;;5.50;;
67757;SDS011;54562;47.620;18.786;2023-09-19T03:41:42;10.80;;;5.20;;
67757;SDS011;54562;47.620;18.786;2023-09-19T03:44:49;12.00;;;5.20;;
67757;SDS011;54562;47.620;18.786;2023-09-19T03:47:55;10.20;;;4.80;;
67757;SDS011;54562;47.620;18.786;2023-09-19T03:51:02;10.30;;;5.40;;
67757;SDS011;54562;47.620;18.786;2023-09-19T03:54:10;12.50;;;5.60;;
67757;SDS011;54562;47.620;18.786;2023-09-19T03:57:17;9.80;;;4.80;;
67757;SDS011;54562;47.620;18.786;2023-09-19T04:00:25;10.30;;;4.50;;
67757;SDS011;54562;47.620;18.786;2023-09-19T04:03:33;8.20;;;3.10;;
67757;SDS011;54562;47.620;18.786;2023-09-19T04:06:50;5.30;;;2.40;;
67757;SDS011;54562;47.620;18.786;2023-09-19T04:09:58;5.90;;;2.30;;
67757;SDS011;54562;47.620;18.786;2023-09-19T04:13:05;7.10;;;2.50;;
67757;SDS011;54562;47.620;18.786;2023-09-19T04:16:12;4.50;;;1.80;;
67757;SDS011;54562;47.620;18.786;2023-09-19T04:19:19;4.90;;;1.70;;
67757;SDS011;54562;47.620;18.786;2023-09-19T04:22:26;4.70;;;2.00;;
67757;SDS011;54562;47.620;18.786;2023-09-19T04:25:34;5.10;;;1.90;;
67757;SDS011;54562;47.620;18.786;2023-09-19T04:28:41;6.60;;;2.00;;
67757;SDS011;54562;47.620;18.786;2023-09-19T04:31:48;5.00;;;1.80;;
67757;SDS011;54562;47.620;18.786;2023-09-19T04:34:56;4.40;;;1.70;;
67757;SDS011;54562;47.620;18.786;2023-09-19T04:38:06;5.40;;;1.70;;
67757;SDS011;54562;47.620;18.786;2023-09-19T04:41:12;4.00;;;1.80;;
67757;SDS011;54562;47.620;18.786;2023-09-19T04:44:19;4.00;;;1.50;;
67757;SDS011;54562;47.620;18.786;2023-09-19T04:47:26;5.10;;;1.80;;
67757;SDS011;54562;47.620;18.786;2023-09-19T04:50:33;3.10;;;1.40;;
67757;SDS011;54562;47.620;18.786;2023-09-19T04:53:40;3.30;;;1.50;;
67757;SDS011;54562;47.620;18.786;2023-09-19T04:56:47;3.70;;;1.40;;
67757;SDS011;54562;47.620;18.786;2023-09-19T04:59:53;3.00;;;1.50;;
67757;SDS011;54562;47.620;18.786;2023-09-19T05:03:00;3.60;;;1.50;;
67757;SDS011;54562;47.620;18.786;2023-09-19T05:06:09;3.10;;;1.50;;
67757;SDS011;54562;47.620;18.786;2023-09-19T05:09:16;2.60;;;1.30;;
67757;SDS011;54562;47.620;18.786;2023-09-19T05:12:23;4.00;;;1.40;;
67757;SDS011;54562;47.620;18.786;2023-09-19T05:15:29;3.80;;;1.40;;
67757;SDS011;54562;47.620;18.786;2023-09-19T05:18:36;3.10;;;1.40;;
67757;SDS011;54562;47.620;18.786;2023-09-19T05:21:44;3.10;;;1.30;;
67757;SDS011;54562;47.620;18.786;2023-09-19T05:24:51;3.30;;;1.40;;
67757;SDS011;54562;47.620;18.786;2023-09-19T05:27:58;3.50;;;1.30;;
67757;SDS011;54562;47.620;18.786;2023-09-19T05:34:12;3.30;;;1.40;;
67757;SDS011;54562;47.620;18.786;2023-09-19T05:37:18;2.70;;;1.30;;
67757;SDS011;54562;47.620;18.786;2023-09-19T05:40:25;3.70;;;1.40;;
67757;SDS011;54562;47.620;18.786;2023-09-19T05:43:32;4.30;;;1.80;;
67757;SDS011;54562;47.620;18.786;2023-09-19T05:46:41;3.70;;;1.60;;
67757;SDS011;54562;47.620;18.786;2023-09-19T05:49:49;3.10;;;1.60;;
67757;SDS011;54562;47.620;18.786;2023-09-19T05:52:56;4.90;;;1.60;;
67757;SDS011;54562;47.620;18.786;2023-09-19T05:56:02;4.40;;;1.60;;
67757;SDS011;54562;47.620;18.786;2023-09-19T05:59:11;3.30;;;1.60;;
67757;SDS011;54562;47.620;18.786;2023-09-19T06:02:18;4.80;;;1.80;;
67757;SDS011;54562;47.620;18.786;2023-09-19T06:05:25;3.90;;;1.50;;
67757;SDS011;54562;47.620;18.786;2023-09-19T06:08:34;4.00;;;1.60;;
67757;SDS011;54562;47.620;18.786;2023-09-19T06:11:42;4.70;;;1.70;;
67757;SDS011;54562;47.620;18.786;2023-09-19T06:14:50;5.40;;;1.70;;
67757;SDS011;54562;47.620;18.786;2023-09-19T06:17:57;4.50;;;1.80;;
67757;SDS011;54562;47.620;18.786;2023-09-19T06:21:07;4.10;;;1.60;;
67757;SDS011;54562;47.620;18.786;2023-09-19T06:24:14;3.80;;;1.50;;
67757;SDS011;54562;47.620;18.786;2023-09-19T06:27:22;5.30;;;1.40;;
67757;SDS011;54562;47.620;18.786;2023-09-19T06:30:30;5.00;;;1.60;;
67757;SDS011;54562;47.620;18.786;2023-09-19T06:33:38;3.90;;;1.60;;
67757;SDS011;54562;47.620;18.786;2023-09-19T06:36:46;4.60;;;1.50;;
67757;SDS011;54562;47.620;18.786;2023-09-19T06:39:55;3.40;;;1.50;;
67757;SDS011;54562;47.620;18.786;2023-09-19T06:43:01;5.60;;;1.60;;
67757;SDS011;54562;47.620;18.786;2023-09-19T06:46:09;2.50;;;1.30;;
67757;SDS011;54562;47.620;18.786;2023-09-19T06:49:16;3.30;;;1.40;;
67757;SDS011;54562;47.620;18.786;2023-09-19T06:52:23;3.90;;;1.50;;
67757;SDS011;54562;47.620;18.786;2023-09-19T06:55:32;3.90;;;1.60;;
67757;SDS011;54562;47.620;18.786;2023-09-19T06:58:40;3.40;;;1.40;;
67757;SDS011;54562;47.620;18.786;2023-09-19T07:01:47;4.70;;;1.60;;
67757;SDS011;54562;47.620;18.786;2023-09-19T07:04:54;3.50;;;1.40;;
67757;SDS011;54562;47.620;18.786;2023-09-19T07:08:04;4.30;;;1.60;;
67757;SDS011;54562;47.620;18.786;2023-09-19T07:14:19;7.50;;;4.50;;
67757;SDS011;54562;47.620;18.786;2023-09-19T07:17:26;4.30;;;1.60;;
67757;SDS011;54562;47.620;18.786;2023-09-19T07:20:33;5.10;;;1.70;;
67757;SDS011;54562;47.620;18.786;2023-09-19T07:23:39;5.30;;;1.50;;
67757;SDS011;54562;47.620;18.786;2023-09-19T07:26:46;6.20;;;1.60;;
67757;SDS011;54562;47.620;18.786;2023-09-19T07:29:53;3.90;;;1.60;;
67757;SDS011;54562;47.620;18.786;2023-09-19T07:33:01;4.40;;;1.80;;
67757;SDS011;54562;47.620;18.786;2023-09-19T07:36:11;5.90;;;2.00;;
67757;SDS011;54562;47.620;18.786;2023-09-19T07:39:19;5.30;;;1.70;;
67757;SDS011;54562;47.620;18.786;2023-09-19T07:42:26;3.60;;;1.70;;
67757;SDS011;54562;47.620;18.786;2023-09-19T07:45:32;4.90;;;1.60;;
67757;SDS011;54562;47.620;18.786;2023-09-19T07:48:40;4.80;;;1.80;;
67757;SDS011;54562;47.620;18.786;2023-09-19T07:51:52;5.00;;;1.70;;
67757;SDS011;54562;47.620;18.786;2023-09-19T07:55:01;3.90;;;1.50;;
67757;SDS011;54562;47.620;18.786;2023-09-19T07:58:12;4.10;;;1.70;;
67757;SDS011;54562;47.620;18.786;2023-09-19T08:01:19;4.60;;;1.80;;
67757;SDS011;54562;47.620;18.786;2023-09-19T08:04:27;5.50;;;1.60;;
67757;SDS011;54562;47.620;18.786;2023-09-19T08:07:34;3.80;;;1.50;;
67757;SDS011;54562;47.620;18.786;2023-09-19T08:10:42;4.00;;;1.60;;
67757;SDS011;54562;47.620;18.786;2023-09-19T08:13:52;3.90;;;1.70;;
67757;SDS011;54562;47.620;18.786;2023-09-19T08:16:59;4.90;;;1.70;;
67757;SDS011;54562;47.620;18.786;2023-09-19T08:20:07;5.50;;;2.00;;
67757;SDS011;54562;47.620;18.786;2023-09-19T08:23:20;4.40;;;1.50;;
67757;SDS011;54562;47.620;18.786;2023-09-19T08:26:27;6.00;;;1.80;;
67757;SDS011;54562;47.620;18.786;2023-09-19T08:29:35;4.00;;;1.60;;
67757;SDS011;54562;47.620;18.786;2023-09-19T08:32:41;4.10;;;1.50;;
67757;SDS011;54562;47.620;18.786;2023-09-19T08:35:49;4.40;;;1.70;;
67757;SDS011;54562;47.620;18.786;2023-09-19T08:38:56;4.70;;;1.60;;
67757;SDS011;54562;47.620;18.786;2023-09-19T08:42:03;4.50;;;1.80;;
67757;SDS011;54562;47.620;18.786;2023-09-19T08:45:12;4.10;;;1.50;;
67757;SDS011;54562;47.620;18.786;2023-09-19T08:48:20;3.90;;;1.60;;
67757;SDS011;54562;47.620;18.786;2023-09-19T08:51:30;4.90;;;1.80;;
67757;SDS011;54562;47.620;18.786;2023-09-19T08:54:47;4.40;;;1.60;;
67757;SDS011;54562;47.620;18.786;2023-09-19T08:57:58;5.60;;;1.70;;
67757;SDS011;54562;47.620;18.786;2023-09-19T09:01:08;4.80;;;1.70;;
67757;SDS011;54562;47.620;18.786;2023-09-19T09:04:17;4.00;;;1.70;;
67757;SDS011;54562;47.620;18.786;2023-09-19T09:07:24;6.80;;;1.60;;
67757;SDS011;54562;47.620;18.786;2023-09-19T09:10:33;3.90;;;1.60;;
67757;SDS011;54562;47.620;18.786;2023-09-19T09:13:40;4.80;;;1.60;;
67757;SDS011;54562;47.620;18.786;2023-09-19T09:16:49;4.40;;;1.80;;
67757;SDS011;54562;47.620;18.786;2023-09-19T09:20:00;6.00;;;1.80;;
67757;SDS011;54562;47.620;18.786;2023-09-19T09:23:10;6.00;;;1.90;;
67757;SDS011;54562;47.620;18.786;2023-09-19T09:26:17;4.90;;;1.70;;
67757;SDS011;54562;47.620;18.786;2023-09-19T09:29:44;6.90;;;1.90;;
67757;SDS011;54562;47.620;18.786;2023-09-19T09:32:53;4.40;;;1.60;;
67757;SDS011;54562;47.620;18.786;2023-09-19T09:36:15;5.00;;;1.70;;
67757;SDS011;54562;47.620;18.786;2023-09-19T09:39:31;4.30;;;2.00;;
67757;SDS011;54562;47.620;18.786;2023-09-19T09:42:38;6.20;;;2.00;;
67757;SDS011;54562;47.620;18.786;2023-09-19T09:45:45;5.60;;;2.30;;
67757;SDS011;54562;47.620;18.786;2023-09-19T09:48:57;5.00;;;2.20;;
67757;SDS011;54562;47.620;18.786;2023-09-19T09:52:19;6.10;;;2.50;;
67757;SDS011;54562;47.620;18.786;2023-09-19T09:55:28;6.10;;;2.60;;
67757;SDS011;54562;47.620;18.786;2023-09-19T09:58:34;7.00;;;2.70;;
67757;SDS011;54562;47.620;18.786;2023-09-19T10:01:47;6.70;;;2.60;;
67757;SDS011;54562;47.620;18.786;2023-09-19T10:04:57;5.40;;;2.70;;
67757;SDS011;54562;47.620;18.786;2023-09-19T10:08:13;6.00;;;3.10;;
67757;SDS011;54562;47.620;18.786;2023-09-19T10:11:22;6.00;;;2.60;;
67757;SDS011;54562;47.620;18.786;2023-09-19T10:14:33;8.20;;;2.70;;
67757;SDS011;54562;47.620;18.786;2023-09-19T10:20:49;6.40;;;2.40;;
67757;SDS011;54562;47.620;18.786;2023-09-19T10:23:58;6.80;;;2.20;;
67757;SDS011;54562;47.620;18.786;2023-09-19T10:27:06;4.80;;;2.10;;
67757;SDS011;54562;47.620;18.786;2023-09-19T10:30:12;4.60;;;2.20;;
67757;SDS011;54562;47.620;18.786;2023-09-19T10:33:19;5.20;;;2.30;;
67757;SDS011;54562;47.620;18.786;2023-09-19T10:36:29;4.60;;;2.00;;
67757;SDS011;54562;47.620;18.786;2023-09-19T10:39:38;4.80;;;2.00;;
67757;SDS011;54562;47.620;18.786;2023-09-19T10:42:46;4.50;;;1.70;;
67757;SDS011;54562;47.620;18.786;2023-09-19T10:45:54;6.20;;;2.20;;
67757;SDS011;54562;47.620;18.786;2023-09-19T10:49:07;5.30;;;2.00;;
67757;SDS011;54562;47.620;18.786;2023-09-19T10:52:15;4.90;;;2.00;;
67757;SDS011;54562;47.620;18.786;2023-09-19T10:55:24;4.50;;;2.00;;
67757;SDS011;54562;47.620;18.786;2023-09-19T10:58:33;4.60;;;2.00;;
67757;SDS011;54562;47.620;18.786;2023-09-19T11:01:44;4.90;;;2.00;;
67757;SDS011;54562;47.620;18.786;2023-09-19T11:04:55;4.60;;;1.70;;
67757;SDS011;54562;47.620;18.786;2023-09-19T11:08:17;4.30;;;1.80;;
67757;SDS011;54562;47.620;18.786;2023-09-19T11:11:40;4.90;;;2.10;;
67757;SDS011;54562;47.620;18.786;2023-09-19T11:14:49;4.50;;;2.00;;
67757;SDS011;54562;47.620;18.786;2023-09-19T11:17:56;4.10;;;1.70;;
67757;SDS011;54562;47.620;18.786;2023-09-19T11:24:41;4.00;;;1.80;;
67757;SDS011;54562;47.620;18.786;2023-09-19T11:35:07;4.40;;;1.90;;
67757;SDS011;54562;47.620;18.786;2023-09-19T11:38:18;4.60;;;1.70;;
67757;SDS011;54562;47.620;18.786;2023-09-19T11:41:40;4.20;;;1.80;;
67757;SDS011;54562;47.620;18.786;2023-09-19T11:44:50;5.90;;;2.10;;
67757;SDS011;54562;47.620;18.786;2023-09-19T11:47:59;5.40;;;2.80;;
67757;SDS011;54562;47.620;18.786;2023-09-19T11:51:14;5.00;;;2.60;;
67757;SDS011;54562;47.620;18.786;2023-09-19T11:54:25;5.30;;;2.70;;
67757;SDS011;54562;47.620;18.786;2023-09-19T12:00:40;5.40;;;2.50;;
67757;SDS011;54562;47.620;18.786;2023-09-19T12:03:53;4.60;;;2.20;;
67757;SDS011;54562;47.620;18.786;2023-09-19T12:07:02;5.80;;;2.10;;
67757;SDS011;54562;47.620;18.786;2023-09-19T12:10:13;5.90;;;2.30;;
67757;SDS011;54562;47.620;18.786;2023-09-19T12:13:24;6.70;;;2.20;;
67757;SDS011;54562;47.620;18.786;2023-09-19T12:16:33;6.00;;;2.30;;
67757;SDS011;54562;47.620;18.786;2023-09-19T12:19:49;6.60;;;2.20;;
67757;SDS011;54562;47.620;18.786;2023-09-19T12:22:56;5.70;;;2.30;;
67757;SDS011;54562;47.620;18.786;2023-09-19T12:26:03;5.90;;;2.20;;
67757;SDS011;54562;47.620;18.786;2023-09-19T12:29:17;6.20;;;2.20;;
67757;SDS011;54562;47.620;18.786;2023-09-19T12:32:35;5.20;;;2.40;;
67757;SDS011;54562;47.620;18.786;2023-09-19T12:38:49;5.90;;;2.30;;
67757;SDS011;54562;47.620;18.786;2023-09-19T12:41:56;8.60;;;2.40;;
67757;SDS011;54562;47.620;18.786;2023-09-19T12:45:04;4.50;;;2.30;;
67757;SDS011;54562;47.620;18.786;2023-09-19T12:48:20;6.90;;;2.50;;
67757;SDS011;54562;47.620;18.786;2023-09-19T12:51:36;5.40;;;2.50;;
67757;SDS011;54562;47.620;18.786;2023-09-19T12:54:42;4.90;;;2.60;;
67757;SDS011;54562;47.620;18.786;2023-09-19T12:58:01;5.60;;;2.60;;
67757;SDS011;54562;47.620;18.786;2023-09-19T13:01:15;6.90;;;2.80;;
67757;SDS011;54562;47.620;18.786;2023-09-19T13:04:24;5.30;;;2.50;;
67757;SDS011;54562;47.620;18.786;2023-09-19T13:07:42;5.50;;;2.50;;
67757;SDS011;54562;47.620;18.786;2023-09-19T13:14:18;6.40;;;2.60;;
67757;SDS011;54562;47.620;18.786;2023-09-19T13:17:34;6.10;;;2.30;;
67757;SDS011;54562;47.620;18.786;2023-09-19T13:24:20;5.70;;;2.30;;
67757;SDS011;54562;47.620;18.786;2023-09-19T13:27:31;6.20;;;2.50;;
67757;SDS011;54562;47.620;18.786;2023-09-19T13:30:37;6.50;;;2.40;;
67757;SDS011;54562;47.620;18.786;2023-09-19T13:33:48;5.90;;;2.20;;
67757;SDS011;54562;47.620;18.786;2023-09-19T13:36:55;6.40;;;2.00;;
67757;SDS011;54562;47.620;18.786;2023-09-19T13:40:03;5.00;;;2.20;;
67757;SDS011;54562;47.620;18.786;2023-09-19T13:43:12;6.10;;;2.40;;
67757;SDS011;54562;47.620;18.786;2023-09-19T13:46:18;5.90;;;2.30;;
67757;SDS011;54562;47.620;18.786;2023-09-19T13:49:29;5.30;;;2.30;;
67757;SDS011;54562;47.620;18.786;2023-09-19T13:52:37;4.70;;;2.20;;
67757;SDS011;54562;47.620;18.786;2023-09-19T13:55:44;5.60;;;2.30;;
67757;SDS011;54562;47.620;18.786;2023-09-19T13:58:51;5.40;;;2.10;;
67757;SDS011;54562;47.620;18.786;2023-09-19T14:01:58;5.60;;;2.40;;
67757;SDS011;54562;47.620;18.786;2023-09-19T14:05:09;6.50;;;2.10;;
67757;SDS011;54562;47.620;18.786;2023-09-19T14:11:23;6.30;;;2.20;;
67757;SDS011;54562;47.620;18.786;2023-09-19T14:14:30;6.00;;;2.10;;
67757;SDS011;54562;47.620;18.786;2023-09-19T14:17:37;5.10;;;2.00;;
67757;SDS011;54562;47.620;18.786;2023-09-19T14:20:45;4.40;;;2.00;;
67757;SDS011;54562;47.620;18.786;2023-09-19T14:23:56;4.80;;;2.10;;
67757;SDS011;54562;47.620;18.786;2023-09-19T14:27:03;5.60;;;2.00;;
67757;SDS011;54562;47.620;18.786;2023-09-19T14:30:12;5.30;;;1.90;;
67757;SDS011;54562;47.620;18.786;2023-09-19T14:33:20;6.50;;;2.00;;
67757;SDS011;54562;47.620;18.786;2023-09-19T14:36:27;6.00;;;1.80;;
67757;SDS011;54562;47.620;18.786;2023-09-19T14:39:34;5.20;;;1.90;;
67757;SDS011;54562;47.620;18.786;2023-09-19T14:42:42;6.70;;;1.90;;
67757;SDS011;54562;47.620;18.786;2023-09-19T14:45:53;5.30;;;2.00;;
67757;SDS011;54562;47.620;18.786;2023-09-19T14:49:07;5.20;;;2.00;;
67757;SDS011;54562;47.620;18.786;2023-09-19T14:52:14;5.30;;;2.00;;
67757;SDS011;54562;47.620;18.786;2023-09-19T14:55:20;5.80;;;2.10;;
67757;SDS011;54562;47.620;18.786;2023-09-19T14:58:27;4.70;;;1.90;;
67757;SDS011;54562;47.620;18.786;2023-09-19T15:01:34;5.10;;;2.20;;
67757;SDS011;54562;47.620;18.786;2023-09-19T15:04:42;5.30;;;2.20;;
67757;SDS011;54562;47.620;18.786;2023-09-19T15:07:50;5.30;;;2.10;;
67757;SDS011;54562;47.620;18.786;2023-09-19T15:10:56;6.30;;;2.20;;
67757;SDS011;54562;47.620;18.786;2023-09-19T15:14:07;6.40;;;2.20;;
67757;SDS011;54562;47.620;18.786;2023-09-19T15:17:13;5.40;;;2.20;;
67757;SDS011;54562;47.620;18.786;2023-09-19T15:20:20;4.50;;;2.10;;
67757;SDS011;54562;47.620;18.786;2023-09-19T15:23:27;10.80;;;2.10;;
67757;SDS011;54562;47.620;18.786;2023-09-19T15:26:35;5.50;;;2.10;;
67757;SDS011;54562;47.620;18.786;2023-09-19T15:29:43;7.40;;;2.20;;
67757;SDS011;54562;47.620;18.786;2023-09-19T15:32:49;5.30;;;2.10;;
67757;SDS011;54562;47.620;18.786;2023-09-19T15:36:01;5.10;;;2.00;;
67757;SDS011;54562;47.620;18.786;2023-09-19T15:39:08;5.20;;;2.10;;
67757;SDS011;54562;47.620;18.786;2023-09-19T15:42:15;4.90;;;2.10;;
67757;SDS011;54562;47.620;18.786;2023-09-19T15:45:21;4.50;;;2.10;;
67757;SDS011;54562;47.620;18.786;2023-09-19T15:48:28;5.40;;;2.10;;
67757;SDS011;54562;47.620;18.786;2023-09-19T15:51:35;5.20;;;2.10;;
67757;SDS011;54562;47.620;18.786;2023-09-19T15:54:42;4.90;;;2.10;;
67757;SDS011;54562;47.620;18.786;2023-09-19T15:57:48;5.30;;;2.20;;
67757;SDS011;54562;47.620;18.786;2023-09-19T16:00:55;5.70;;;1.90;;
67757;SDS011;54562;47.620;18.786;2023-09-19T16:04:02;5.30;;;2.30;;
67757;SDS011;54562;47.620;18.786;2023-09-19T16:07:12;6.30;;;2.20;;
67757;SDS011;54562;47.620;18.786;2023-09-19T16:10:18;4.70;;;2.10;;
67757;SDS011;54562;47.620;18.786;2023-09-19T16:13:26;5.30;;;2.10;;
67757;SDS011;54562;47.620;18.786;2023-09-19T16:16:32;5.10;;;2.20;;
67757;SDS011;54562;47.620;18.786;2023-09-19T16:19:39;5.20;;;2.20;;
67757;SDS011;54562;47.620;18.786;2023-09-19T16:22:47;6.30;;;2.30;;
67757;SDS011;54562;47.620;18.786;2023-09-19T16:26:01;6.20;;;2.50;;
67757;SDS011;54562;47.620;18.786;2023-09-19T16:29:10;4.90;;;2.20;;
67757;SDS011;54562;47.620;18.786;2023-09-19T16:32:16;9.50;;;2.30;;
67757;SDS011;54562;47.620;18.786;2023-09-19T16:35:24;5.10;;;2.20;;
67757;SDS011;54562;47.620;18.786;2023-09-19T16:38:30;6.50;;;2.20;;
67757;SDS011;54562;47.620;18.786;2023-09-19T16:41:37;5.40;;;2.30;;
67757;SDS011;54562;47.620;18.786;2023-09-19T16:44:45;4.80;;;2.20;;
67757;SDS011;54562;47.620;18.786;2023-09-19T16:47:52;5.40;;;2.10;;
67757;SDS011;54562;47.620;18.786;2023-09-19T16:51:01;5.40;;;2.20;;
67757;SDS011;54562;47.620;18.786;2023-09-19T16:54:08;5.30;;;2.00;;
67757;SDS011;54562;47.620;18.786;2023-09-19T16:57:15;6.30;;;2.30;;
67757;SDS011;54562;47.620;18.786;2023-09-19T17:00:22;4.90;;;2.20;;
67757;SDS011;54562;47.620;18.786;2023-09-19T17:03:29;5.80;;;2.40;;
67757;SDS011;54562;47.620;18.786;2023-09-19T17:06:36;5.60;;;2.40;;
67757;SDS011;54562;47.620;18.786;2023-09-19T17:09:43;4.30;;;2.10;;
67757;SDS011;54562;47.620;18.786;2023-09-19T17:12:50;6.40;;;2.50;;
67757;SDS011;54562;47.620;18.786;2023-09-19T17:16:01;7.30;;;2.50;;
67757;SDS011;54562;47.620;18.786;2023-09-19T17:19:10;5.60;;;2.40;;
67757;SDS011;54562;47.620;18.786;2023-09-19T17:22:17;7.30;;;2.70;;
67757;SDS011;54562;47.620;18.786;2023-09-19T17:25:24;7.40;;;2.80;;
67757;SDS011;54562;47.620;18.786;2023-09-19T17:28:35;7.10;;;3.00;;
67757;SDS011;54562;47.620;18.786;2023-09-19T17:31:43;8.80;;;3.00;;
67757;SDS011;54562;47.620;18.786;2023-09-19T17:34:50;6.00;;;2.80;;
67757;SDS011;54562;47.620;18.786;2023-09-19T17:37:57;6.90;;;2.90;;
67757;SDS011;54562;47.620;18.786;2023-09-19T17:44:13;6.10;;;3.30;;
67757;SDS011;54562;47.620;18.786;2023-09-19T17:47:20;6.70;;;3.00;;
67757;SDS011;54562;47.620;18.786;2023-09-19T17:50:27;8.10;;;3.10;;
67757;SDS011;54562;47.620;18.786;2023-09-19T17:53:35;8.30;;;2.90;;
67757;SDS011;54562;47.620;18.786;2023-09-19T17:56:44;5.70;;;2.90;;
67757;SDS011;54562;47.620;18.786;2023-09-19T17:59:53;6.60;;;2.70;;
67757;SDS011;54562;47.620;18.786;2023-09-19T18:03:02;6.80;;;3.00;;
67757;SDS011;54562;47.620;18.786;2023-09-19T18:06:10;7.00;;;3.00;;
67757;SDS011;54562;47.620;18.786;2023-09-19T18:09:20;5.90;;;2.60;;
67757;SDS011;54562;47.620;18.786;2023-09-19T18:12:27;5.70;;;2.80;;
67757;SDS011;54562;47.620;18.786;2023-09-19T18:15:36;6.30;;;2.40;;
67757;SDS011;54562;47.620;18.786;2023-09-19T18:18:46;5.30;;;2.80;;
67757;SDS011;54562;47.620;18.786;2023-09-19T18:21:56;6.80;;;2.60;;
67757;SDS011;54562;47.620;18.786;2023-09-19T18:25:08;11.90;;;2.70;;
67757;SDS011;54562;47.620;18.786;2023-09-19T18:28:16;7.20;;;2.90;;
67757;SDS011;54562;47.620;18.786;2023-09-19T18:31:23;6.00;;;2.60;;
67757;SDS011;54562;47.620;18.786;2023-09-19T18:34:32;5.10;;;2.60;;
67757;SDS011;54562;47.620;18.786;2023-09-19T18:37:39;6.80;;;2.70;;
67757;SDS011;54562;47.620;18.786;2023-09-19T18:40:48;5.30;;;2.60;;
67757;SDS011;54562;47.620;18.786;2023-09-19T18:43:55;6.00;;;2.70;;
67757;SDS011;54562;47.620;18.786;2023-09-19T18:50:10;5.50;;;2.60;;
67757;SDS011;54562;47.620;18.786;2023-09-19T18:53:16;6.00;;;2.70;;
67757;SDS011;54562;47.620;18.786;2023-09-19T18:56:23;6.90;;;3.00;;
67757;SDS011;54562;47.620;18.786;2023-09-19T18:59:30;4.80;;;2.40;;
67757;SDS011;54562;47.620;18.786;2023-09-19T19:02:37;5.30;;;2.70;;
67757;SDS011;54562;47.620;18.786;2023-09-19T19:05:44;5.70;;;2.80;;
67757;SDS011;54562;47.620;18.786;2023-09-19T19:08:54;6.80;;;2.80;;
67757;SDS011;54562;47.620;18.786;2023-09-19T19:12:01;5.70;;;2.80;;
67757;SDS011;54562;47.620;18.786;2023-09-19T19:15:11;5.40;;;2.70;;
67757;SDS011;54562;47.620;18.786;2023-09-19T19:18:19;5.70;;;2.70;;